createdAt,value
2023-01-21T00:02:10.574Z,97907.97
2023-01-21T00:04:39.089Z,97912.94
2023-01-21T00:07:07.774Z,97919.66
2023-01-21T00:09:36.276Z,97917.13
2023-01-21T00:12:06.571Z,97910.38
2023-01-21T00:14:35.036Z,97916.25
2023-01-21T00:17:03.437Z,97925.44
2023-01-21T00:19:32.013Z,97917.91
2023-01-21T00:22:00.456Z,97925.47
2023-01-21T00:24:29.067Z,97918.69
2023-01-21T00:26:57.502Z,97913.66
2023-01-21T00:29:27.454Z,97918.63
2023-01-21T00:31:56.136Z,97925.31
2023-01-21T00:34:24.633Z,97927.03
2023-01-21T00:36:55.081Z,97921.09
2023-01-21T00:39:24.750Z,97935.28
2023-01-21T00:41:53.259Z,97929.41
2023-01-21T00:44:21.763Z,97936.91
2023-01-21T00:46:51.740Z,97930.81
2023-01-21T00:49:20.250Z,97936.75
2023-01-21T00:51:48.790Z,97933.47
2023-01-21T00:54:17.245Z,97932.56
2023-01-21T00:56:45.766Z,97931.72
2023-01-21T00:59:14.328Z,97931.66
2023-01-21T01:01:43.380Z,97933.31
2023-01-21T01:04:13.769Z,97939.28
2023-01-21T01:06:42.285Z,97948.41
2023-01-21T01:09:12.864Z,97945.81
2023-01-21T01:11:41.328Z,97949.19
2023-01-21T01:14:09.845Z,97948.38
2023-01-21T01:16:38.793Z,97947.44
2023-01-21T01:19:07.326Z,97955.91
2023-01-21T01:21:37.113Z,97955.94
2023-01-21T01:24:06.212Z,97955.81
2023-01-21T01:26:36.375Z,97950.00
2023-01-21T01:29:05.815Z,97958.22
2023-01-21T01:31:34.584Z,97966.72
2023-01-21T01:34:03.024Z,97964.16
2023-01-21T01:36:31.462Z,97963.28
2023-01-21T01:39:01.572Z,97965.03
2023-01-21T01:41:31.068Z,97962.34
2023-01-21T01:44:01.254Z,97957.94
2023-01-21T01:46:31.386Z,97961.50
2023-01-21T01:49:09.658Z,97966.44
2023-01-21T01:51:45.687Z,97964.59
2023-01-21T01:54:20.626Z,97975.28
2023-01-21T01:56:52.573Z,97972.81
2023-01-21T01:59:21.958Z,97968.75
2023-01-21T02:01:50.816Z,97975.41
2023-01-21T02:04:24.163Z,97977.03
2023-01-21T02:06:54.712Z,97973.59
2023-01-21T02:09:29.639Z,97975.31
2023-01-21T02:11:59.532Z,97975.44
2023-01-21T02:14:28.813Z,97976.38
2023-01-21T02:17:25.411Z,97981.50
2023-01-21T02:20:18.429Z,97984.81
2023-01-21T02:22:53.122Z,97981.41
2023-01-21T02:25:54.748Z,97983.06
2023-01-21T02:29:01.861Z,97980.50
2023-01-21T02:32:05.638Z,97988.66
2023-01-21T02:34:44.485Z,97994.53
2023-01-21T02:37:17.468Z,97988.66
2023-01-21T02:40:08.710Z,97984.50
2023-01-21T02:42:43.438Z,97985.28
2023-01-21T02:45:19.656Z,97992.03
2023-01-21T02:47:54.834Z,97997.81
2023-01-21T02:50:28.313Z,97990.28
2023-01-21T02:52:57.787Z,97989.50
2023-01-21T02:55:29.868Z,97997.03
2023-01-21T02:58:01.986Z,98002.16
2023-01-21T03:00:37.546Z,97992.78
2023-01-21T03:03:34.051Z,98000.31
2023-01-21T03:06:39.171Z,97995.31
2023-01-21T03:09:19.081Z,97998.59
2023-01-21T03:12:09.065Z,97998.53
2023-01-21T03:15:00.529Z,98009.44
2023-01-21T03:17:36.655Z,98009.47
2023-01-21T03:20:11.884Z,98009.34
2023-01-21T03:22:41.528Z,98005.84
2023-01-21T03:25:14.550Z,98014.19
2023-01-21T03:27:46.795Z,98014.06
2023-01-21T03:30:17.596Z,98013.34
2023-01-21T03:32:50.862Z,98017.47
2023-01-21T03:35:23.323Z,98014.03
2023-01-21T03:37:57.627Z,98009.94
2023-01-21T03:40:32.309Z,98012.34
2023-01-21T03:43:00.803Z,98015.84
2023-01-21T03:45:35.682Z,98016.56
2023-01-21T03:48:13.700Z,98010.59
2023-01-21T03:50:46.921Z,98014.72
2023-01-21T03:53:15.590Z,98016.38
2023-01-21T03:55:45.508Z,98013.72
2023-01-21T03:58:13.904Z,98009.38
2023-01-21T04:00:42.440Z,98013.56
2023-01-21T04:03:10.886Z,98015.97
2023-01-21T04:05:39.456Z,98015.25
2023-01-21T04:08:07.862Z,98016.84
2023-01-21T04:10:36.297Z,98015.78
2023-01-21T04:13:06.180Z,98012.16
2023-01-21T04:15:34.682Z,98020.59
2023-01-21T04:18:03.158Z,98018.13
2023-01-21T04:20:31.661Z,98020.69
2023-01-21T04:23:00.097Z,98022.38
2023-01-21T04:25:28.610Z,98020.00
2023-01-21T04:27:57.074Z,98031.66
2023-01-21T04:30:26.866Z,98029.28
2023-01-21T04:32:55.297Z,98021.63
2023-01-21T04:35:23.817Z,98023.19
2023-01-21T04:37:52.391Z,98017.91
2023-01-21T04:40:20.925Z,98023.56
2023-01-21T04:42:49.468Z,98026.03
2023-01-21T04:45:18.177Z,98031.75
2023-01-21T04:47:48.110Z,98030.06
2023-01-21T04:50:17.927Z,98032.69
2023-01-21T04:52:46.590Z,98031.16
2023-01-21T04:55:15.040Z,98031.19
2023-01-21T04:57:43.576Z,98037.81
2023-01-21T05:00:12.815Z,98041.16
2023-01-21T05:02:41.378Z,98045.41
2023-01-21T05:05:11.549Z,98045.22
2023-01-21T05:07:40.041Z,98043.59
2023-01-21T05:10:09.441Z,98050.25
2023-01-21T05:12:37.903Z,98052.69
2023-01-21T05:15:07.117Z,98045.19
2023-01-21T05:17:35.594Z,98046.84
2023-01-21T05:20:04.309Z,98046.63
2023-01-21T05:22:34.131Z,98053.09
2023-01-21T05:25:02.676Z,98055.66
2023-01-21T05:27:31.287Z,98053.19
2023-01-21T05:29:59.737Z,98063.22
2023-01-21T05:32:28.295Z,98065.75
2023-01-21T05:34:56.732Z,98066.63
2023-01-21T05:37:25.145Z,98054.78
2023-01-21T05:39:54.990Z,98069.94
2023-01-21T05:42:23.642Z,98074.94
2023-01-21T05:44:52.125Z,98068.53
2023-01-21T05:47:20.537Z,98073.66
2023-01-21T05:49:49.029Z,98072.78
2023-01-21T05:52:17.531Z,98074.66
2023-01-21T05:55:00.670Z,98071.53
2023-01-21T05:57:32.055Z,98076.75
2023-01-21T06:00:00.581Z,98072.78
2023-01-21T06:02:29.114Z,98085.44
2023-01-21T06:04:57.563Z,98076.25
2023-01-21T06:07:26.066Z,98088.22
2023-01-21T06:09:55.421Z,98086.56
2023-01-21T06:12:24.827Z,98095.81
2023-01-21T06:14:54.730Z,98086.56
2023-01-21T06:17:23.292Z,98097.56
2023-01-21T06:19:51.649Z,98101.72
2023-01-21T06:22:20.236Z,98102.63
2023-01-21T06:24:48.710Z,98099.44
2023-01-21T06:27:17.261Z,98102.75
2023-01-21T06:29:45.720Z,98093.59
2023-01-21T06:32:15.670Z,98107.13
2023-01-21T06:34:46.511Z,98108.09
2023-01-21T06:37:15.154Z,98119.00
2023-01-21T06:39:43.585Z,98122.41
2023-01-21T06:42:12.057Z,98116.63
2023-01-21T06:44:40.499Z,98116.72
2023-01-21T06:47:09.359Z,98126.00
2023-01-21T06:49:39.654Z,98114.47
2023-01-21T06:52:08.181Z,98130.50
2023-01-21T06:54:36.959Z,98127.31
2023-01-21T06:57:05.470Z,98137.44
2023-01-21T06:59:33.986Z,98136.50
2023-01-21T07:02:02.602Z,98130.59
2023-01-21T07:04:31.517Z,98134.91
2023-01-21T07:07:01.440Z,98145.91
2023-01-21T07:09:29.910Z,98145.16
2023-01-21T07:11:58.605Z,98148.50
2023-01-21T07:14:27.016Z,98151.84
2023-01-21T07:16:55.674Z,98141.91
2023-01-21T07:19:24.184Z,98162.09
2023-01-21T07:21:52.755Z,98158.03
2023-01-21T07:24:22.967Z,98159.66
2023-01-21T07:26:51.386Z,98155.53
2023-01-21T07:29:20.379Z,98158.22
2023-01-21T07:31:49.170Z,98164.03
2023-01-21T07:34:18.025Z,98169.06
2023-01-21T07:36:46.525Z,98177.59
2023-01-21T07:39:14.922Z,98166.78
2023-01-21T07:41:44.784Z,98170.28
2023-01-21T07:44:13.854Z,98168.66
2023-01-21T07:46:42.643Z,98178.81
2023-01-21T07:49:17.061Z,98170.41
2023-01-21T07:51:45.985Z,98183.19
2023-01-21T07:54:15.476Z,98180.72
2023-01-21T07:56:45.343Z,98181.56
2023-01-21T07:59:15.091Z,98180.81
2023-01-21T08:01:44.026Z,98179.22
2023-01-21T08:04:12.584Z,98185.94
2023-01-21T08:06:41.863Z,98180.25
2023-01-21T08:09:11.273Z,98183.72
2023-01-21T08:11:39.738Z,98187.06
2023-01-21T08:14:09.586Z,98182.09
2023-01-21T08:16:38.114Z,98182.19
2023-01-21T08:19:06.697Z,98179.78
2023-01-21T08:21:36.188Z,98179.00
2023-01-21T08:24:05.289Z,98174.78
2023-01-21T08:26:33.804Z,98179.06
2023-01-21T08:29:02.307Z,98174.94
2023-01-21T08:31:32.090Z,98178.22
2023-01-21T08:34:01.353Z,98180.88
2023-01-21T08:36:29.959Z,98178.47
2023-01-21T08:39:01.830Z,98182.72
2023-01-21T08:41:30.429Z,98184.38
2023-01-21T08:43:58.955Z,98179.16
2023-01-21T08:46:27.452Z,98176.63
2023-01-21T08:48:57.719Z,98184.22
2023-01-21T08:51:26.247Z,98179.22
2023-01-21T08:53:54.845Z,98180.09
2023-01-21T08:56:23.313Z,98195.16
2023-01-21T08:58:56.097Z,98184.38
2023-01-21T09:01:25.989Z,98191.88
2023-01-21T09:03:58.081Z,98183.56
2023-01-21T09:06:28.682Z,98192.84
2023-01-21T09:09:00.460Z,98187.88
2023-01-21T09:11:30.638Z,98194.63
2023-01-21T09:14:03.338Z,98193.84
2023-01-21T09:16:32.796Z,98203.19
2023-01-21T09:19:03.262Z,98202.44
2023-01-21T09:21:34.547Z,98202.44
2023-01-21T09:24:03.175Z,98201.56
2023-01-21T09:26:31.942Z,98196.56
2023-01-21T09:29:03.541Z,98203.34
2023-01-21T09:31:32.289Z,98210.84
2023-01-21T09:34:03.639Z,98216.00
2023-01-21T09:36:34.592Z,98213.53
2023-01-21T09:39:03.406Z,98216.09
2023-01-21T09:41:36.180Z,98211.06
2023-01-21T09:44:14.058Z,98213.69
2023-01-21T09:46:48.671Z,98212.84
2023-01-21T09:49:23.348Z,98213.72
2023-01-21T09:51:57.692Z,98215.50
2023-01-21T09:54:31.275Z,98218.81
2023-01-21T09:57:39.090Z,98218.00
2023-01-21T10:00:19.575Z,98204.56
2023-01-21T10:03:00.375Z,98212.16
2023-01-21T10:06:01.994Z,98213.75
2023-01-21T10:08:41.438Z,98225.53
2023-01-21T10:11:27.714Z,98220.38
2023-01-21T10:14:13.269Z,98225.47
2023-01-21T10:16:46.862Z,98218.81
2023-01-21T10:19:20.669Z,98219.66
2023-01-21T10:21:53.272Z,98219.66
2023-01-21T10:24:28.084Z,98218.00
2023-01-21T10:26:57.703Z,98219.75
2023-01-21T10:29:27.981Z,98215.47
2023-01-21T10:32:01.869Z,98213.81
2023-01-21T10:34:32.798Z,98212.97
2023-01-21T10:37:16.234Z,98205.44
2023-01-21T10:39:54.933Z,98208.78
2023-01-21T10:42:43.057Z,98210.50
2023-01-21T10:45:21.665Z,98217.19
2023-01-21T10:47:55.986Z,98214.63
2023-01-21T10:50:36.104Z,98207.97
2023-01-21T10:53:17.482Z,98204.59
2023-01-21T10:56:01.727Z,98205.34
2023-01-21T10:58:35.300Z,98201.22
2023-01-21T11:01:08.603Z,98195.28
2023-01-21T11:03:43.360Z,98199.50
2023-01-21T11:06:14.757Z,98197.88
2023-01-21T11:08:46.123Z,98201.19
2023-01-21T11:11:19.764Z,98193.59
2023-01-21T11:13:48.248Z,98194.44
2023-01-21T11:16:32.571Z,98187.78
2023-01-21T11:19:01.176Z,98185.22
2023-01-21T11:21:29.673Z,98193.69
2023-01-21T11:23:59.723Z,98181.91
2023-01-21T11:26:31.573Z,98190.34
2023-01-21T11:29:08.967Z,98183.59
2023-01-21T11:31:38.368Z,98184.47
2023-01-21T11:34:08.485Z,98176.03
2023-01-21T11:36:37.015Z,98177.72
2023-01-21T11:39:09.191Z,98176.09
2023-01-21T11:41:39.287Z,98176.13
2023-01-21T11:44:18.327Z,98175.31
2023-01-21T11:46:46.959Z,98179.50
2023-01-21T11:49:32.533Z,98174.50
2023-01-21T11:52:15.113Z,98165.22
2023-01-21T11:54:44.322Z,98169.47
2023-01-21T11:57:28.408Z,98166.13
2023-01-21T12:00:05.155Z,98165.31
2023-01-21T12:02:44.755Z,98161.94
2023-01-21T12:05:27.429Z,98146.78
2023-01-21T12:07:56.935Z,98151.00
2023-01-21T12:10:34.123Z,98152.75
2023-01-21T12:13:22.889Z,98148.53
2023-01-21T12:16:15.599Z,98149.38
2023-01-21T12:19:16.429Z,98152.75
2023-01-21T12:22:03.957Z,98144.31
2023-01-21T12:24:47.594Z,98146.84
2023-01-21T12:27:25.197Z,98140.13
2023-01-21T12:30:08.457Z,98137.56
2023-01-21T12:32:41.496Z,98139.25
2023-01-21T12:35:15.031Z,98138.41
2023-01-21T12:37:48.336Z,98134.22
2023-01-21T12:40:20.572Z,98135.91
2023-01-21T12:42:55.064Z,98143.47
2023-01-21T12:45:33.282Z,98133.34
2023-01-21T12:48:11.121Z,98145.16
2023-01-21T12:50:41.455Z,98129.16
2023-01-21T12:53:21.194Z,98133.34
2023-01-21T12:56:14.385Z,98137.56
2023-01-21T12:58:50.678Z,98137.53
2023-01-21T13:01:42.129Z,98137.53
2023-01-21T13:04:25.283Z,98127.41
2023-01-21T13:07:01.935Z,98132.47
2023-01-21T13:09:36.808Z,98140.06
2023-01-21T13:12:10.929Z,98143.41
2023-01-21T13:14:46.792Z,98145.09
2023-01-21T13:17:22.406Z,98146.84
2023-01-21T13:19:51.404Z,98144.31
2023-01-21T13:22:29.786Z,98149.34
2023-01-21T13:25:10.881Z,98150.16
2023-01-21T13:27:48.414Z,98157.78
2023-01-21T13:30:25.881Z,98146.81
2023-01-21T13:33:03.716Z,98160.31
2023-01-21T13:35:43.711Z,98156.91
2023-01-21T13:38:23.365Z,98164.50
2023-01-21T13:40:59.886Z,98164.50
2023-01-21T13:43:40.752Z,98163.66
2023-01-21T13:46:22.938Z,98172.09
2023-01-21T13:49:10.897Z,98165.34
2023-01-21T13:51:59.164Z,98164.50
2023-01-21T13:54:39.339Z,98164.53
2023-01-21T13:57:30.687Z,98171.28
2023-01-21T14:00:04.680Z,98172.97
2023-01-21T14:02:47.966Z,98177.16
2023-01-21T14:05:23.523Z,98176.31
2023-01-21T14:07:58.461Z,98178.84
2023-01-21T14:10:33.996Z,98177.16
2023-01-21T14:13:35.399Z,98181.41
2023-01-21T14:16:27.497Z,98186.47
2023-01-21T14:19:11.822Z,98182.25
2023-01-21T14:22:07.926Z,98186.44
2023-01-21T14:24:53.874Z,98185.63
2023-01-21T14:27:30.173Z,98202.50
2023-01-21T14:30:10.615Z,98200.81
2023-01-21T14:32:43.251Z,98200.81
2023-01-21T14:35:20.770Z,98205.03
2023-01-21T14:37:58.625Z,98205.84
2023-01-21T14:40:31.242Z,98205.03
2023-01-21T14:43:00.070Z,98209.25
2023-01-21T14:45:53.110Z,98199.97
2023-01-21T14:48:33.141Z,98212.63
2023-01-21T14:51:13.679Z,98215.97
2023-01-21T14:53:48.896Z,98211.78
2023-01-21T14:56:22.847Z,98220.22
2023-01-21T14:58:55.752Z,98221.06
2023-01-21T15:01:31.437Z,98220.22
2023-01-21T15:04:02.563Z,98223.59
2023-01-21T15:06:31.402Z,98233.69
2023-01-21T15:09:01.748Z,98228.63
2023-01-21T15:11:33.116Z,98226.94
2023-01-21T15:14:07.430Z,98224.41
2023-01-21T15:16:37.643Z,98226.94
2023-01-21T15:19:31.395Z,98221.91
2023-01-21T15:22:21.655Z,98229.47
2023-01-21T15:25:20.951Z,98227.81
2023-01-21T15:28:40.299Z,98228.63
2023-01-21T15:31:11.346Z,98237.06
2023-01-21T15:33:46.134Z,98237.06
2023-01-21T15:36:22.010Z,98236.22
2023-01-21T15:38:51.807Z,98242.97
2023-01-21T15:41:27.924Z,98245.50
2023-01-21T15:44:23.463Z,98242.13
2023-01-21T15:46:58.808Z,98244.66
2023-01-21T15:49:42.515Z,98242.13
2023-01-21T15:52:25.618Z,98247.16
2023-01-21T15:55:02.858Z,98251.41
2023-01-21T15:57:44.386Z,98252.25
2023-01-21T16:00:32.598Z,98249.72
2023-01-21T16:03:12.374Z,98246.34
2023-01-21T16:05:50.290Z,98250.53
2023-01-21T16:08:32.010Z,98248.88
2023-01-21T16:11:15.178Z,98256.44
2023-01-21T16:13:54.994Z,98250.53
2023-01-21T16:16:42.467Z,98243.78
2023-01-21T16:19:14.673Z,98262.34
2023-01-21T16:21:47.125Z,98264.00
2023-01-21T16:24:19.063Z,98255.56
2023-01-21T16:26:47.527Z,98262.31
2023-01-21T16:29:17.570Z,98267.34
2023-01-21T16:31:48.218Z,98268.22
2023-01-21T16:34:39.746Z,98269.06
2023-01-21T16:37:11.448Z,98272.44
2023-01-21T16:39:40.708Z,98277.50
2023-01-21T16:42:24.775Z,98270.72
2023-01-21T16:44:55.080Z,98273.25
2023-01-21T16:47:26.884Z,98277.47
2023-01-21T16:49:55.475Z,98271.59
2023-01-21T16:52:24.803Z,98274.09
2023-01-21T16:54:54.684Z,98283.38
2023-01-21T16:57:31.581Z,98280.00
2023-01-21T17:00:02.621Z,98277.47
2023-01-21T17:02:33.802Z,98286.75
2023-01-21T17:05:04.595Z,98281.72
2023-01-21T17:07:38.588Z,98293.53
2023-01-21T17:10:18.331Z,98296.88
2023-01-21T17:12:48.740Z,98297.69
2023-01-21T17:15:20.328Z,98301.94
2023-01-21T17:17:49.264Z,98300.22
2023-01-21T17:20:36.750Z,98305.31
2023-01-21T17:23:08.083Z,98301.09
2023-01-21T17:25:38.146Z,98303.63
2023-01-21T17:28:17.713Z,98304.47
2023-01-21T17:30:47.931Z,98301.94
2023-01-21T17:33:30.887Z,98310.38
2023-01-21T17:36:08.114Z,98299.41
2023-01-21T17:38:40.877Z,98304.50
2023-01-21T17:41:14.245Z,98304.50
2023-01-21T17:43:50.958Z,98311.22
2023-01-21T17:46:22.874Z,98319.66
2023-01-21T17:48:54.309Z,98318.81
2023-01-21T17:51:26.283Z,98314.63
2023-01-21T17:53:58.076Z,98314.63
2023-01-21T17:56:39.050Z,98317.97
2023-01-21T17:59:38.169Z,98319.66
2023-01-21T18:02:12.298Z,98317.16
2023-01-21T18:04:41.529Z,98320.47
2023-01-21T18:07:20.772Z,98313.75
2023-01-21T18:09:49.431Z,98317.97
2023-01-21T18:12:19.382Z,98315.44
2023-01-21T18:14:48.255Z,98309.56
2023-01-21T18:17:21.125Z,98318.81
2023-01-21T18:19:49.687Z,98316.31
2023-01-21T18:22:23.019Z,98317.13
2023-01-21T18:24:51.520Z,98316.31
2023-01-21T18:27:25.725Z,98313.78
2023-01-21T18:29:56.960Z,98319.69
2023-01-21T18:32:26.823Z,98318.00
2023-01-21T18:34:55.378Z,98317.94
2023-01-21T18:37:23.946Z,98323.06
2023-01-21T18:39:52.457Z,98316.28
2023-01-21T18:42:20.934Z,98311.25
2023-01-21T18:44:49.422Z,98312.09
2023-01-21T18:47:19.608Z,98308.69
2023-01-21T18:49:50.908Z,98319.66
2023-01-21T18:52:21.650Z,98312.91
2023-01-21T18:54:50.205Z,98313.72
2023-01-21T18:57:21.075Z,98301.91
2023-01-21T18:59:49.985Z,98309.50
2023-01-21T19:02:20.200Z,98310.38
2023-01-21T19:04:50.109Z,98307.81
2023-01-21T19:07:20.560Z,98311.19
2023-01-21T19:09:50.913Z,98305.28
2023-01-21T19:12:21.314Z,98307.81
2023-01-21T19:14:49.995Z,98301.03
2023-01-21T19:17:26.781Z,98295.16
2023-01-21T19:19:57.395Z,98287.56
2023-01-21T19:22:26.151Z,98288.34
2023-01-21T19:24:54.684Z,98291.72
2023-01-21T19:27:27.551Z,98295.09
2023-01-21T19:29:56.306Z,98283.28
2023-01-21T19:32:25.033Z,98290.84
2023-01-21T19:34:54.482Z,98280.75
2023-01-21T19:37:25.935Z,98291.69
2023-01-21T19:39:54.480Z,98291.72
2023-01-21T19:42:23.042Z,98299.31
2023-01-21T19:44:51.518Z,98289.22
2023-01-21T19:47:25.469Z,98289.22
2023-01-21T19:49:54.174Z,98296.81
2023-01-21T19:52:24.099Z,98297.63
2023-01-21T19:54:54.926Z,98289.22
2023-01-21T19:57:23.996Z,98287.50
2023-01-21T19:59:53.862Z,98290.84
2023-01-21T20:02:22.600Z,98290.84
2023-01-21T20:04:51.257Z,98292.53
2023-01-21T20:07:21.967Z,98294.22
2023-01-21T20:09:51.846Z,98294.22
2023-01-21T20:12:20.645Z,98290.00
2023-01-21T20:14:50.348Z,98296.72
2023-01-21T20:17:18.959Z,98294.22
2023-01-21T20:19:47.404Z,98297.59
2023-01-21T20:22:15.958Z,98297.63
2023-01-21T20:24:44.474Z,98298.47
2023-01-21T20:27:15.349Z,98298.47
2023-01-21T20:29:55.549Z,98301.81
2023-01-21T20:32:24.548Z,98297.63
2023-01-21T20:34:53.077Z,98304.41
2023-01-21T20:37:21.618Z,98307.78
2023-01-21T20:39:50.167Z,98306.91
2023-01-21T20:42:19.993Z,98297.63
2023-01-21T20:44:48.554Z,98304.41
2023-01-21T20:47:27.546Z,98296.00
2023-01-21T20:50:14.414Z,98303.59
2023-01-21T20:52:43.015Z,98301.88
2023-01-21T20:55:12.769Z,98302.72
2023-01-21T20:57:43.041Z,98292.56
2023-01-21T21:00:17.100Z,98297.63
2023-01-21T21:02:46.349Z,98298.50
2023-01-21T21:05:16.044Z,98305.25
2023-01-21T21:07:44.983Z,98296.78
2023-01-21T21:10:21.127Z,98305.19
2023-01-21T21:12:51.345Z,98302.63
2023-01-21T21:15:20.733Z,98297.56
2023-01-21T21:17:49.951Z,98298.41
2023-01-21T21:20:20.521Z,98292.50
2023-01-21T21:22:52.329Z,98286.59
2023-01-21T21:25:22.372Z,98287.41
2023-01-21T21:27:53.250Z,98291.69
2023-01-21T21:30:24.457Z,98290.75
2023-01-21T21:32:53.443Z,98292.44
2023-01-21T21:35:27.043Z,98289.09
2023-01-21T21:37:57.165Z,98292.44
2023-01-21T21:40:29.202Z,98293.28
2023-01-21T21:43:17.008Z,98282.34
2023-01-21T21:45:59.648Z,98288.22
2023-01-21T21:48:41.316Z,98292.47
2023-01-21T21:51:13.098Z,98284.88
2023-01-21T21:53:42.651Z,98286.56
2023-01-21T21:56:13.925Z,98275.59
2023-01-21T21:58:44.207Z,98282.38
2023-01-21T22:01:14.744Z,98278.94
2023-01-21T22:03:43.634Z,98284.03
2023-01-21T22:06:13.574Z,98281.53
2023-01-21T22:08:43.689Z,98282.41
2023-01-21T22:11:15.411Z,98278.13
2023-01-21T22:13:50.043Z,98274.78
2023-01-21T22:16:21.865Z,98271.44
2023-01-21T22:18:51.387Z,98273.09
2023-01-21T22:21:21.906Z,98264.72
2023-01-21T22:23:52.277Z,98267.19
2023-01-21T22:26:22.469Z,98263.03
2023-01-21T22:28:52.921Z,98260.53
2023-01-21T22:31:23.032Z,98263.88
2023-01-21T22:33:52.375Z,98258.81
2023-01-21T22:36:23.639Z,98263.88
2023-01-21T22:38:52.915Z,98266.38
2023-01-21T22:41:23.721Z,98261.28
2023-01-21T22:43:54.657Z,98257.09
2023-01-21T22:46:24.760Z,98259.63
2023-01-21T22:48:54.850Z,98260.47
2023-01-21T22:51:23.878Z,98252.88
2023-01-21T22:53:53.461Z,98257.09
2023-01-21T22:56:35.385Z,98256.25
2023-01-21T22:59:10.043Z,98253.72
2023-01-21T23:01:38.770Z,98255.44
2023-01-21T23:04:07.396Z,98249.56
2023-01-21T23:06:37.721Z,98252.03
2023-01-21T23:09:09.223Z,98252.06
2023-01-21T23:11:41.583Z,98251.22
2023-01-21T23:14:11.509Z,98249.53
2023-01-21T23:16:40.511Z,98247.81
2023-01-21T23:19:08.964Z,98240.22
2023-01-21T23:21:38.351Z,98238.53
2023-01-21T23:24:07.667Z,98240.22
2023-01-21T23:26:36.500Z,98237.72
2023-01-21T23:29:05.447Z,98230.94
2023-01-21T23:31:35.705Z,98237.72
2023-01-21T23:34:05.254Z,98233.47
2023-01-21T23:36:33.894Z,98239.41
2023-01-21T23:39:02.330Z,98236.84
2023-01-21T23:41:30.831Z,98231.78
2023-01-21T23:44:00.711Z,98229.28
2023-01-21T23:46:29.447Z,98233.50
2023-01-21T23:48:59.341Z,98228.44
2023-01-21T23:51:27.850Z,98223.41
2023-01-21T23:53:57.169Z,98221.69
2023-01-21T23:56:26.715Z,98214.94
2023-01-21T23:58:55.292Z,98221.72
